sensor_id;sensor_type;location;lat;lon;timestamp;P1;durP1;ratioP1;P2;durP2;ratioP2
38037;SDS011;23843;51.320;12.340;2022-08-19T04:31:57;0.70;;;0.70;;
38037;SDS011;23843;51.320;12.340;2022-08-19T04:34:24;0.80;;;0.80;;
38037;SDS011;23843;51.320;12.340;2022-08-19T04:36:51;0.82;;;0.82;;
38037;SDS011;23843;51.320;12.340;2022-08-19T04:39:21;1.33;;;1.23;;
38037;SDS011;23843;51.320;12.340;2022-08-19T04:41:48;2.25;;;2.05;;
38037;SDS011;23843;51.320;12.340;2022-08-19T04:44:14;2.15;;;2.05;;
38037;SDS011;23843;51.320;12.340;2022-08-19T04:46:40;1.50;;;1.40;;
38037;SDS011;23843;51.320;12.340;2022-08-19T04:49:07;1.33;;;1.23;;
38037;SDS011;23843;51.320;12.340;2022-08-19T04:51:32;2.03;;;1.92;;
38037;SDS011;23843;51.320;12.340;2022-08-19T04:53:58;1.85;;;1.75;;
38037;SDS011;23843;51.320;12.340;2022-08-19T04:56:26;1.60;;;1.50;;
38037;SDS011;23843;51.320;12.340;2022-08-19T04:58:52;3.47;;;3.17;;
38037;SDS011;23843;51.320;12.340;2022-08-19T05:01:19;2.47;;;2.28;;
38037;SDS011;23843;51.320;12.340;2022-08-19T05:03:46;1.80;;;1.70;;
38037;SDS011;23843;51.320;12.340;2022-08-19T05:06:14;2.78;;;2.58;;
38037;SDS011;23843;51.320;12.340;2022-08-19T05:08:42;1.50;;;1.40;;
38037;SDS011;23843;51.320;12.340;2022-08-19T05:11:08;1.60;;;1.50;;
38037;SDS011;23843;51.320;12.340;2022-08-19T05:13:36;2.85;;;2.65;;
38037;SDS011;23843;51.320;12.340;2022-08-19T05:16:02;5.30;;;4.80;;
38037;SDS011;23843;51.320;12.340;2022-08-19T05:18:28;5.47;;;4.95;;
38037;SDS011;23843;51.320;12.340;2022-08-19T05:20:53;5.03;;;4.63;;
38037;SDS011;23843;51.320;12.340;2022-08-19T05:23:20;3.53;;;3.22;;
38037;SDS011;23843;51.320;12.340;2022-08-19T05:25:46;2.22;;;2.03;;
38037;SDS011;23843;51.320;12.340;2022-08-19T05:28:11;3.13;;;2.85;;
38037;SDS011;23843;51.320;12.340;2022-08-19T05:30:36;3.10;;;2.90;;
38037;SDS011;23843;51.320;12.340;2022-08-19T05:33:02;5.32;;;4.40;;
38037;SDS011;23843;51.320;12.340;2022-08-19T05:35:27;2.75;;;2.55;;
38037;SDS011;23843;51.320;12.340;2022-08-19T05:37:53;2.83;;;2.63;;
38037;SDS011;23843;51.320;12.340;2022-08-19T05:40:20;4.80;;;4.40;;
38037;SDS011;23843;51.320;12.340;2022-08-19T05:42:45;4.18;;;3.78;;
38037;SDS011;23843;51.320;12.340;2022-08-19T05:45:10;2.78;;;2.58;;
38037;SDS011;23843;51.320;12.340;2022-08-19T05:47:36;1.75;;;1.65;;
38037;SDS011;23843;51.320;12.340;2022-08-19T05:50:01;1.70;;;1.60;;
38037;SDS011;23843;51.320;12.340;2022-08-19T05:52:27;1.58;;;1.48;;
38037;SDS011;23843;51.320;12.340;2022-08-19T05:54:53;1.73;;;1.63;;
38037;SDS011;23843;51.320;12.340;2022-08-19T05:57:20;1.77;;;1.67;;
38037;SDS011;23843;51.320;12.340;2022-08-19T05:59:45;2.90;;;2.70;;
38037;SDS011;23843;51.320;12.340;2022-08-19T06:02:11;1.98;;;1.88;;
38037;SDS011;23843;51.320;12.340;2022-08-19T06:04:36;1.90;;;1.80;;
38037;SDS011;23843;51.320;12.340;2022-08-19T06:07:02;3.53;;;3.22;;
38037;SDS011;23843;51.320;12.340;2022-08-19T06:09:27;4.57;;;4.18;;
38037;SDS011;23843;51.320;12.340;2022-08-19T06:11:54;3.65;;;3.35;;
38037;SDS011;23843;51.320;12.340;2022-08-19T06:14:22;3.45;;;3.15;;
38037;SDS011;23843;51.320;12.340;2022-08-19T06:16:50;1.92;;;1.83;;
38037;SDS011;23843;51.320;12.340;2022-08-19T06:19:16;2.30;;;2.10;;
38037;SDS011;23843;51.320;12.340;2022-08-19T06:21:43;4.63;;;4.22;;
38037;SDS011;23843;51.320;12.340;2022-08-19T06:24:11;4.47;;;4.07;;
38037;SDS011;23843;51.320;12.340;2022-08-19T06:26:39;6.20;;;5.60;;
38037;SDS011;23843;51.320;12.340;2022-08-19T06:29:07;8.15;;;7.45;;
38037;SDS011;23843;51.320;12.340;2022-08-19T06:31:35;11.77;;;10.63;;
38037;SDS011;23843;51.320;12.340;2022-08-19T06:34:01;6.32;;;5.72;;
38037;SDS011;23843;51.320;12.340;2022-08-19T06:36:28;4.90;;;4.50;;
38037;SDS011;23843;51.320;12.340;2022-08-19T06:38:55;6.38;;;5.78;;
38037;SDS011;23843;51.320;12.340;2022-08-19T06:41:21;6.78;;;6.18;;
38037;SDS011;23843;51.320;12.340;2022-08-19T06:43:46;6.00;;;5.50;;
38037;SDS011;23843;51.320;12.340;2022-08-19T06:46:12;3.35;;;3.05;;
38037;SDS011;23843;51.320;12.340;2022-08-19T06:48:42;3.78;;;3.47;;
38037;SDS011;23843;51.320;12.340;2022-08-19T06:51:08;5.53;;;5.03;;
38037;SDS011;23843;51.320;12.340;2022-08-19T06:53:33;5.45;;;4.82;;
38037;SDS011;23843;51.320;12.340;2022-08-19T06:55:59;7.75;;;6.95;;
38037;SDS011;23843;51.320;12.340;2022-08-19T06:58:25;4.40;;;4.00;;
38037;SDS011;23843;51.320;12.340;2022-08-19T07:00:50;4.55;;;4.15;;
38037;SDS011;23843;51.320;12.340;2022-08-19T07:03:15;3.03;;;2.72;;
38037;SDS011;23843;51.320;12.340;2022-08-19T07:05:42;8.05;;;5.78;;
38037;SDS011;23843;51.320;12.340;2022-08-19T07:08:08;9.93;;;8.55;;
38037;SDS011;23843;51.320;12.340;2022-08-19T07:10:34;9.57;;;7.72;;
38037;SDS011;23843;51.320;12.340;2022-08-19T07:12:59;8.68;;;5.78;;
38037;SDS011;23843;51.320;12.340;2022-08-19T07:15:25;5.88;;;5.38;;
38037;SDS011;23843;51.320;12.340;2022-08-19T07:17:50;8.70;;;7.38;;
38037;SDS011;23843;51.320;12.340;2022-08-19T07:20:15;4.07;;;3.67;;
38037;SDS011;23843;51.320;12.340;2022-08-19T07:22:42;4.10;;;3.70;;
38037;SDS011;23843;51.320;12.340;2022-08-19T07:25:08;5.90;;;5.32;;
38037;SDS011;23843;51.320;12.340;2022-08-19T07:27:34;3.40;;;3.10;;
38037;SDS011;23843;51.320;12.340;2022-08-19T07:30:00;2.80;;;2.60;;
38037;SDS011;23843;51.320;12.340;2022-08-19T07:32:25;2.83;;;2.60;;
38037;SDS011;23843;51.320;12.340;2022-08-19T07:34:51;1.90;;;1.80;;
38037;SDS011;23843;51.320;12.340;2022-08-19T07:37:16;1.70;;;1.60;;
38037;SDS011;23843;51.320;12.340;2022-08-19T07:39:43;1.80;;;1.70;;
38037;SDS011;23843;51.320;12.340;2022-08-19T07:42:10;2.20;;;2.00;;
38037;SDS011;23843;51.320;12.340;2022-08-19T07:44:36;4.03;;;3.50;;
38037;SDS011;23843;51.320;12.340;2022-08-19T07:47:02;3.40;;;3.10;;
38037;SDS011;23843;51.320;12.340;2022-08-19T07:49:29;3.03;;;2.72;;
38037;SDS011;23843;51.320;12.340;2022-08-19T07:51:56;1.77;;;1.67;;
38037;SDS011;23843;51.320;12.340;2022-08-19T07:54:23;1.50;;;1.40;;
38037;SDS011;23843;51.320;12.340;2022-08-19T07:56:51;2.22;;;2.00;;
38037;SDS011;23843;51.320;12.340;2022-08-19T07:59:17;3.67;;;3.38;;
38037;SDS011;23843;51.320;12.340;2022-08-19T08:01:43;4.80;;;4.30;;
38037;SDS011;23843;51.320;12.340;2022-08-19T08:04:09;2.60;;;2.40;;
38037;SDS011;23843;51.320;12.340;2022-08-19T08:06:36;2.50;;;2.30;;
38037;SDS011;23843;51.320;12.340;2022-08-19T08:09:02;2.30;;;2.10;;
38037;SDS011;23843;51.320;12.340;2022-08-19T08:11:29;1.98;;;1.80;;
38037;SDS011;23843;51.320;12.340;2022-08-19T08:13:56;1.40;;;1.30;;
38037;SDS011;23843;51.320;12.340;2022-08-19T08:16:24;3.40;;;3.10;;
38037;SDS011;23843;51.320;12.340;2022-08-19T08:18:49;2.13;;;1.92;;
38037;SDS011;23843;51.320;12.340;2022-08-19T08:21:15;2.92;;;2.72;;
38037;SDS011;23843;51.320;12.340;2022-08-19T08:23:40;4.82;;;4.22;;
38037;SDS011;23843;51.320;12.340;2022-08-19T08:26:06;2.65;;;2.45;;
38037;SDS011;23843;51.320;12.340;2022-08-19T08:28:31;1.98;;;1.83;;
38037;SDS011;23843;51.320;12.340;2022-08-19T08:30:58;2.28;;;2.17;;
38037;SDS011;23843;51.320;12.340;2022-08-19T08:33:24;6.47;;;5.20;;
38037;SDS011;23843;51.320;12.340;2022-08-19T08:35:51;3.30;;;2.70;;
38037;SDS011;23843;51.320;12.340;2022-08-19T08:38:16;3.10;;;2.80;;
38037;SDS011;23843;51.320;12.340;2022-08-19T08:40:43;2.97;;;2.63;;
38037;SDS011;23843;51.320;12.340;2022-08-19T08:43:16;3.80;;;3.50;;
38037;SDS011;23843;51.320;12.340;2022-08-19T08:45:47;5.55;;;5.05;;
38037;SDS011;23843;51.320;12.340;2022-08-19T08:48:20;4.30;;;3.90;;
38037;SDS011;23843;51.320;12.340;2022-08-19T08:50:49;4.38;;;3.97;;
38037;SDS011;23843;51.320;12.340;2022-08-19T08:53:19;3.30;;;3.00;;
38037;SDS011;23843;51.320;12.340;2022-08-19T08:55:46;4.28;;;3.85;;
38037;SDS011;23843;51.320;12.340;2022-08-19T08:58:12;3.63;;;3.33;;
38037;SDS011;23843;51.320;12.340;2022-08-19T09:00:42;2.30;;;2.10;;
38037;SDS011;23843;51.320;12.340;2022-08-19T09:03:13;1.95;;;1.85;;
38037;SDS011;23843;51.320;12.340;2022-08-19T09:05:45;3.05;;;2.78;;
38037;SDS011;23843;51.320;12.340;2022-08-19T09:08:22;2.40;;;2.20;;
38037;SDS011;23843;51.320;12.340;2022-08-19T09:10:57;3.58;;;3.28;;
38037;SDS011;23843;51.320;12.340;2022-08-19T09:13:24;2.80;;;2.60;;
38037;SDS011;23843;51.320;12.340;2022-08-19T09:16:03;3.38;;;3.00;;
38037;SDS011;23843;51.320;12.340;2022-08-19T09:18:38;5.60;;;4.97;;
38037;SDS011;23843;51.320;12.340;2022-08-19T09:21:06;6.35;;;5.68;;
38037;SDS011;23843;51.320;12.340;2022-08-19T09:23:31;3.90;;;3.60;;
38037;SDS011;23843;51.320;12.340;2022-08-19T09:25:57;3.70;;;3.40;;
38037;SDS011;23843;51.320;12.340;2022-08-19T09:28:22;3.80;;;3.50;;
38037;SDS011;23843;51.320;12.340;2022-08-19T09:30:48;2.25;;;2.10;;
38037;SDS011;23843;51.320;12.340;2022-08-19T09:33:13;2.30;;;2.10;;
38037;SDS011;23843;51.320;12.340;2022-08-19T09:35:38;3.83;;;3.45;;
38037;SDS011;23843;51.320;12.340;2022-08-19T09:38:05;5.28;;;4.75;;
38037;SDS011;23843;51.320;12.340;2022-08-19T09:40:31;5.75;;;5.22;;
38037;SDS011;23843;51.320;12.340;2022-08-19T09:42:56;5.35;;;4.85;;
38037;SDS011;23843;51.320;12.340;2022-08-19T09:45:22;3.38;;;3.08;;
38037;SDS011;23843;51.320;12.340;2022-08-19T09:47:48;5.05;;;4.63;;
38037;SDS011;23843;51.320;12.340;2022-08-19T09:50:14;5.03;;;4.63;;
38037;SDS011;23843;51.320;12.340;2022-08-19T09:52:40;5.57;;;5.00;;
38037;SDS011;23843;51.320;12.340;2022-08-19T09:55:08;4.93;;;4.53;;
38037;SDS011;23843;51.320;12.340;2022-08-19T09:57:34;6.75;;;6.13;;
38037;SDS011;23843;51.320;12.340;2022-08-19T10:00:00;5.57;;;5.00;;
38037;SDS011;23843;51.320;12.340;2022-08-19T10:02:25;5.00;;;4.53;;
38037;SDS011;23843;51.320;12.340;2022-08-19T10:04:51;4.22;;;3.83;;
38037;SDS011;23843;51.320;12.340;2022-08-19T10:07:17;4.28;;;3.20;;
38037;SDS011;23843;51.320;12.340;2022-08-19T10:09:42;3.35;;;3.03;;
38037;SDS011;23843;51.320;12.340;2022-08-19T10:12:09;4.65;;;4.25;;
38037;SDS011;23843;51.320;12.340;2022-08-19T10:14:34;6.05;;;5.45;;
38037;SDS011;23843;51.320;12.340;2022-08-19T10:17:01;5.13;;;4.63;;
38037;SDS011;23843;51.320;12.340;2022-08-19T10:19:27;5.32;;;4.32;;
38037;SDS011;23843;51.320;12.340;2022-08-19T10:21:53;6.85;;;6.05;;
38037;SDS011;23843;51.320;12.340;2022-08-19T10:24:19;5.07;;;4.57;;
38037;SDS011;23843;51.320;12.340;2022-08-19T10:26:44;4.25;;;3.90;;
38037;SDS011;23843;51.320;12.340;2022-08-19T10:29:11;4.15;;;3.75;;
38037;SDS011;23843;51.320;12.340;2022-08-19T10:31:36;2.90;;;2.70;;
38037;SDS011;23843;51.320;12.340;2022-08-19T10:34:02;3.70;;;3.30;;
38037;SDS011;23843;51.320;12.340;2022-08-19T10:36:29;2.92;;;2.63;;
38037;SDS011;23843;51.320;12.340;2022-08-19T10:38:57;2.80;;;2.60;;
38037;SDS011;23843;51.320;12.340;2022-08-19T10:41:25;3.55;;;3.25;;
38037;SDS011;23843;51.320;12.340;2022-08-19T10:43:52;3.72;;;3.42;;
38037;SDS011;23843;51.320;12.340;2022-08-19T10:46:21;4.10;;;3.70;;
38037;SDS011;23843;51.320;12.340;2022-08-19T10:48:47;4.93;;;4.53;;
38037;SDS011;23843;51.320;12.340;2022-08-19T10:51:13;4.18;;;3.42;;
38037;SDS011;23843;51.320;12.340;2022-08-19T10:53:39;2.90;;;2.70;;
38037;SDS011;23843;51.320;12.340;2022-08-19T10:56:05;4.63;;;4.22;;
38037;SDS011;23843;51.320;12.340;2022-08-19T10:58:30;2.50;;;2.30;;
38037;SDS011;23843;51.320;12.340;2022-08-19T11:00:56;2.92;;;2.70;;
38037;SDS011;23843;51.320;12.340;2022-08-19T11:03:25;2.80;;;2.60;;
38037;SDS011;23843;51.320;12.340;2022-08-19T11:05:57;2.92;;;2.65;;
38037;SDS011;23843;51.320;12.340;2022-08-19T11:08:24;3.15;;;2.85;;
38037;SDS011;23843;51.320;12.340;2022-08-19T11:10:50;3.30;;;3.00;;
38037;SDS011;23843;51.320;12.340;2022-08-19T11:13:16;3.10;;;2.83;;
38037;SDS011;23843;51.320;12.340;2022-08-19T11:15:41;2.53;;;2.33;;
38037;SDS011;23843;51.320;12.340;2022-08-19T11:18:06;3.22;;;2.83;;
38037;SDS011;23843;51.320;12.340;2022-08-19T11:20:33;5.70;;;3.17;;
38037;SDS011;23843;51.320;12.340;2022-08-19T11:22:59;2.92;;;2.40;;
38037;SDS011;23843;51.320;12.340;2022-08-19T11:25:24;3.33;;;2.53;;
38037;SDS011;23843;51.320;12.340;2022-08-19T11:27:49;2.53;;;2.33;;
38037;SDS011;23843;51.320;12.340;2022-08-19T11:30:15;3.47;;;3.17;;
38037;SDS011;23843;51.320;12.340;2022-08-19T11:32:41;3.00;;;2.70;;
38037;SDS011;23843;51.320;12.340;2022-08-19T11:35:06;3.15;;;2.90;;
38037;SDS011;23843;51.320;12.340;2022-08-19T11:37:34;3.88;;;2.90;;
38037;SDS011;23843;51.320;12.340;2022-08-19T11:39:59;1.75;;;1.65;;
38037;SDS011;23843;51.320;12.340;2022-08-19T11:42:25;2.38;;;2.17;;
38037;SDS011;23843;51.320;12.340;2022-08-19T11:44:50;3.50;;;3.20;;
38037;SDS011;23843;51.320;12.340;2022-08-19T11:47:16;2.42;;;2.22;;
38037;SDS011;23843;51.320;12.340;2022-08-19T11:49:41;1.83;;;1.73;;
38037;SDS011;23843;51.320;12.340;2022-08-19T11:52:07;2.33;;;2.13;;
38037;SDS011;23843;51.320;12.340;2022-08-19T11:54:34;2.50;;;2.30;;
38037;SDS011;23843;51.320;12.340;2022-08-19T11:56:59;1.73;;;1.63;;
38037;SDS011;23843;51.320;12.340;2022-08-19T11:59:27;2.33;;;2.10;;
38037;SDS011;23843;51.320;12.340;2022-08-19T12:01:52;2.22;;;1.90;;
38037;SDS011;23843;51.320;12.340;2022-08-19T12:04:18;2.70;;;2.40;;
38037;SDS011;23843;51.320;12.340;2022-08-19T12:06:43;1.85;;;1.75;;
38037;SDS011;23843;51.320;12.340;2022-08-19T12:09:09;2.50;;;2.30;;
38037;SDS011;23843;51.320;12.340;2022-08-19T12:11:36;2.50;;;2.30;;
38037;SDS011;23843;51.320;12.340;2022-08-19T12:14:03;3.17;;;2.60;;
38037;SDS011;23843;51.320;12.340;2022-08-19T12:16:29;2.85;;;2.58;;
38037;SDS011;23843;51.320;12.340;2022-08-19T12:18:55;3.75;;;2.92;;
38037;SDS011;23843;51.320;12.340;2022-08-19T12:21:23;1.85;;;1.75;;
38037;SDS011;23843;51.320;12.340;2022-08-19T12:23:50;3.65;;;2.92;;
38037;SDS011;23843;51.320;12.340;2022-08-19T12:26:16;2.40;;;2.20;;
38037;SDS011;23843;51.320;12.340;2022-08-19T12:28:43;2.90;;;2.70;;
38037;SDS011;23843;51.320;12.340;2022-08-19T12:31:09;3.65;;;3.35;;
38037;SDS011;23843;51.320;12.340;2022-08-19T12:33:35;3.60;;;3.30;;
38037;SDS011;23843;51.320;12.340;2022-08-19T12:36:02;2.65;;;2.30;;
38037;SDS011;23843;51.320;12.340;2022-08-19T12:38:28;2.80;;;2.60;;
38037;SDS011;23843;51.320;12.340;2022-08-19T12:40:53;2.80;;;2.60;;
38037;SDS011;23843;51.320;12.340;2022-08-19T12:43:19;3.35;;;2.30;;
38037;SDS011;23843;51.320;12.340;2022-08-19T12:45:46;2.88;;;2.67;;
38037;SDS011;23843;51.320;12.340;2022-08-19T12:48:11;2.72;;;2.53;;
38037;SDS011;23843;51.320;12.340;2022-08-19T12:50:38;4.68;;;4.25;;
38037;SDS011;23843;51.320;12.340;2022-08-19T12:53:04;4.07;;;3.70;;
38037;SDS011;23843;51.320;12.340;2022-08-19T12:55:29;3.67;;;3.38;;
38037;SDS011;23843;51.320;12.340;2022-08-19T12:57:55;2.55;;;2.35;;
38037;SDS011;23843;51.320;12.340;2022-08-19T13:00:20;2.58;;;2.38;;
38037;SDS011;23843;51.320;12.340;2022-08-19T13:02:50;3.40;;;3.10;;
38037;SDS011;23843;51.320;12.340;2022-08-19T13:05:17;5.05;;;4.55;;
38037;SDS011;23843;51.320;12.340;2022-08-19T13:07:45;5.53;;;5.03;;
38037;SDS011;23843;51.320;12.340;2022-08-19T13:10:11;2.75;;;2.55;;
38037;SDS011;23843;51.320;12.340;2022-08-19T13:12:38;1.90;;;1.80;;
38037;SDS011;23843;51.320;12.340;2022-08-19T13:15:04;3.60;;;3.30;;
38037;SDS011;23843;51.320;12.340;2022-08-19T13:17:30;2.30;;;2.10;;
38037;SDS011;23843;51.320;12.340;2022-08-19T13:19:57;1.92;;;1.83;;
38037;SDS011;23843;51.320;12.340;2022-08-19T13:22:22;1.38;;;1.27;;
38037;SDS011;23843;51.320;12.340;2022-08-19T13:24:48;1.90;;;1.80;;
38037;SDS011;23843;51.320;12.340;2022-08-19T13:27:13;1.45;;;1.35;;
38037;SDS011;23843;51.320;12.340;2022-08-19T13:29:39;1.60;;;1.50;;
38037;SDS011;23843;51.320;12.340;2022-08-19T13:32:05;2.05;;;1.92;;
38037;SDS011;23843;51.320;12.340;2022-08-19T13:34:31;2.60;;;2.40;;
38037;SDS011;23843;51.320;12.340;2022-08-19T13:37:00;1.50;;;1.40;;
38037;SDS011;23843;51.320;12.340;2022-08-19T13:39:27;1.52;;;1.42;;
38037;SDS011;23843;51.320;12.340;2022-08-19T13:41:52;1.30;;;1.20;;
38037;SDS011;23843;51.320;12.340;2022-08-19T13:44:18;1.00;;;1.00;;
38037;SDS011;23843;51.320;12.340;2022-08-19T13:46:44;0.90;;;0.90;;
38037;SDS011;23843;51.320;12.340;2022-08-19T13:49:10;0.90;;;0.90;;
38037;SDS011;23843;51.320;12.340;2022-08-19T13:51:37;1.27;;;1.17;;
38037;SDS011;23843;51.320;12.340;2022-08-19T13:54:04;1.30;;;1.20;;
38037;SDS011;23843;51.320;12.340;2022-08-19T13:56:30;1.27;;;1.17;;
38037;SDS011;23843;51.320;12.340;2022-08-19T13:58:55;1.20;;;1.20;;
38037;SDS011;23843;51.320;12.340;2022-08-19T14:01:21;1.75;;;1.65;;
38037;SDS011;23843;51.320;12.340;2022-08-19T14:03:47;1.33;;;1.23;;
38037;SDS011;23843;51.320;12.340;2022-08-19T14:06:12;1.30;;;1.20;;
38037;SDS011;23843;51.320;12.340;2022-08-19T14:08:38;1.08;;;1.02;;
38037;SDS011;23843;51.320;12.340;2022-08-19T14:11:04;2.05;;;1.92;;
38037;SDS011;23843;51.320;12.340;2022-08-19T14:13:30;1.58;;;1.48;;
38037;SDS011;23843;51.320;12.340;2022-08-19T14:15:55;1.20;;;1.10;;
38037;SDS011;23843;51.320;12.340;2022-08-19T14:18:21;1.40;;;1.30;;
38037;SDS011;23843;51.320;12.340;2022-08-19T14:20:46;2.30;;;2.10;;
38037;SDS011;23843;51.320;12.340;2022-08-19T14:23:14;1.40;;;1.30;;
38037;SDS011;23843;51.320;12.340;2022-08-19T14:25:42;1.40;;;1.30;;
38037;SDS011;23843;51.320;12.340;2022-08-19T14:28:09;3.08;;;2.35;;
38037;SDS011;23843;51.320;12.340;2022-08-19T14:30:38;1.65;;;1.55;;
38037;SDS011;23843;51.320;12.340;2022-08-19T14:33:04;1.88;;;1.77;;
38037;SDS011;23843;51.320;12.340;2022-08-19T14:35:31;1.50;;;1.20;;
38037;SDS011;23843;51.320;12.340;2022-08-19T14:37:57;1.40;;;1.30;;
38037;SDS011;23843;51.320;12.340;2022-08-19T14:40:24;1.48;;;1.38;;
38037;SDS011;23843;51.320;12.340;2022-08-19T14:42:51;1.50;;;1.40;;
38037;SDS011;23843;51.320;12.340;2022-08-19T14:45:18;0.93;;;0.93;;
38037;SDS011;23843;51.320;12.340;2022-08-19T14:47:43;1.23;;;1.15;;
38037;SDS011;23843;51.320;12.340;2022-08-19T14:50:10;1.00;;;1.00;;
38037;SDS011;23843;51.320;12.340;2022-08-19T14:52:36;1.95;;;1.80;;
38037;SDS011;23843;51.320;12.340;2022-08-19T14:55:02;2.20;;;2.00;;
38037;SDS011;23843;51.320;12.340;2022-08-19T14:57:29;2.03;;;1.92;;
38037;SDS011;23843;51.320;12.340;2022-08-19T14:59:54;1.75;;;1.65;;
38037;SDS011;23843;51.320;12.340;2022-08-19T15:02:21;1.60;;;1.50;;
38037;SDS011;23843;51.320;12.340;2022-08-19T15:04:46;1.85;;;1.75;;
38037;SDS011;23843;51.320;12.340;2022-08-19T15:07:12;3.45;;;3.15;;
38037;SDS011;23843;51.320;12.340;2022-08-19T15:09:37;2.58;;;2.38;;
38037;SDS011;23843;51.320;12.340;2022-08-19T15:12:03;2.40;;;2.20;;
38037;SDS011;23843;51.320;12.340;2022-08-19T15:14:28;1.63;;;1.52;;
38037;SDS011;23843;51.320;12.340;2022-08-19T15:16:54;1.90;;;1.80;;
38037;SDS011;23843;51.320;12.340;2022-08-19T15:19:20;1.58;;;1.48;;
38037;SDS011;23843;51.320;12.340;2022-08-19T15:21:46;3.20;;;2.90;;
38037;SDS011;23843;51.320;12.340;2022-08-19T15:24:11;2.20;;;2.10;;
38037;SDS011;23843;51.320;12.340;2022-08-19T15:26:37;2.55;;;2.35;;
38037;SDS011;23843;51.320;12.340;2022-08-19T15:29:03;1.63;;;1.52;;
38037;SDS011;23843;51.320;12.340;2022-08-19T15:31:28;1.70;;;1.60;;
38037;SDS011;23843;51.320;12.340;2022-08-19T15:33:54;1.60;;;1.50;;
38037;SDS011;23843;51.320;12.340;2022-08-19T15:36:22;1.23;;;1.13;;
38037;SDS011;23843;51.320;12.340;2022-08-19T15:38:48;1.10;;;1.00;;
38037;SDS011;23843;51.320;12.340;2022-08-19T15:41:15;1.88;;;1.77;;
38037;SDS011;23843;51.320;12.340;2022-08-19T15:43:42;1.50;;;1.40;;
38037;SDS011;23843;51.320;12.340;2022-08-19T15:46:08;2.70;;;2.50;;
38037;SDS011;23843;51.320;12.340;2022-08-19T15:48:33;1.88;;;1.77;;
38037;SDS011;23843;51.320;12.340;2022-08-19T15:50:58;1.67;;;1.58;;
38037;SDS011;23843;51.320;12.340;2022-08-19T15:53:25;1.60;;;1.50;;
38037;SDS011;23843;51.320;12.340;2022-08-19T15:55:50;1.88;;;1.77;;
38037;SDS011;23843;51.320;12.340;2022-08-19T15:58:16;2.22;;;2.03;;
38037;SDS011;23843;51.320;12.340;2022-08-19T16:00:41;2.20;;;2.00;;
38037;SDS011;23843;51.320;12.340;2022-08-19T16:03:08;2.00;;;1.90;;
38037;SDS011;23843;51.320;12.340;2022-08-19T16:05:37;1.60;;;1.50;;
38037;SDS011;23843;51.320;12.340;2022-08-19T16:08:02;1.80;;;1.70;;
38037;SDS011;23843;51.320;12.340;2022-08-19T16:10:30;2.15;;;2.05;;
38037;SDS011;23843;51.320;12.340;2022-08-19T16:12:55;2.30;;;2.15;;
38037;SDS011;23843;51.320;12.340;2022-08-19T16:15:24;1.50;;;1.40;;
38037;SDS011;23843;51.320;12.340;2022-08-19T16:17:50;1.00;;;1.00;;
38037;SDS011;23843;51.320;12.340;2022-08-19T16:20:15;1.23;;;1.13;;
38037;SDS011;23843;51.320;12.340;2022-08-19T16:22:41;1.58;;;1.48;;
38037;SDS011;23843;51.320;12.340;2022-08-19T16:25:07;0.82;;;0.82;;
38037;SDS011;23843;51.320;12.340;2022-08-19T16:27:35;0.80;;;0.80;;
38037;SDS011;23843;51.320;12.340;2022-08-19T16:30:01;0.95;;;0.95;;
38037;SDS011;23843;51.320;12.340;2022-08-19T16:32:27;0.60;;;0.60;;
38037;SDS011;23843;51.320;12.340;2022-08-19T16:34:56;2.00;;;1.80;;
38037;SDS011;23843;51.320;12.340;2022-08-19T16:37:21;1.17;;;1.10;;
38037;SDS011;23843;51.320;12.340;2022-08-19T16:39:47;1.10;;;1.10;;
38037;SDS011;23843;51.320;12.340;2022-08-19T16:42:12;1.70;;;1.60;;
38037;SDS011;23843;51.320;12.340;2022-08-19T16:44:41;2.70;;;2.50;;
38037;SDS011;23843;51.320;12.340;2022-08-19T16:47:09;2.78;;;2.58;;
38037;SDS011;23843;51.320;12.340;2022-08-19T16:49:34;1.85;;;1.75;;
38037;SDS011;23843;51.320;12.340;2022-08-19T16:52:00;1.48;;;1.38;;
38037;SDS011;23843;51.320;12.340;2022-08-19T16:54:25;1.70;;;1.60;;
38037;SDS011;23843;51.320;12.340;2022-08-19T16:56:51;1.40;;;1.30;;
38037;SDS011;23843;51.320;12.340;2022-08-19T16:59:16;1.02;;;1.00;;
38037;SDS011;23843;51.320;12.340;2022-08-19T17:01:43;1.45;;;1.30;;
38037;SDS011;23843;51.320;12.340;2022-08-19T17:04:08;1.15;;;1.10;;
38037;SDS011;23843;51.320;12.340;2022-08-19T17:06:34;1.13;;;1.13;;
38037;SDS011;23843;51.320;12.340;2022-08-19T17:09:00;0.90;;;0.90;;
38037;SDS011;23843;51.320;12.340;2022-08-19T17:11:26;0.90;;;0.90;;
38037;SDS011;23843;51.320;12.340;2022-08-19T17:13:53;0.80;;;0.80;;
38037;SDS011;23843;51.320;12.340;2022-08-19T17:16:19;0.90;;;0.90;;
38037;SDS011;23843;51.320;12.340;2022-08-19T17:18:48;0.75;;;0.75;;
38037;SDS011;23843;51.320;12.340;2022-08-19T17:21:14;0.80;;;0.80;;
38037;SDS011;23843;51.320;12.340;2022-08-19T17:23:39;0.65;;;0.65;;
38037;SDS011;23843;51.320;12.340;2022-08-19T17:26:05;0.80;;;0.80;;
38037;SDS011;23843;51.320;12.340;2022-08-19T17:28:30;0.80;;;0.80;;
38037;SDS011;23843;51.320;12.340;2022-08-19T17:30:56;0.80;;;0.80;;
38037;SDS011;23843;51.320;12.340;2022-08-19T17:33:21;0.70;;;0.70;;
38037;SDS011;23843;51.320;12.340;2022-08-19T17:35:48;0.57;;;0.57;;
38037;SDS011;23843;51.320;12.340;2022-08-19T17:38:15;1.60;;;1.50;;
38037;SDS011;23843;51.320;12.340;2022-08-19T17:40:43;1.00;;;1.00;;
38037;SDS011;23843;51.320;12.340;2022-08-19T17:43:11;0.88;;;0.88;;
38037;SDS011;23843;51.320;12.340;2022-08-19T17:45:39;0.70;;;0.70;;
38037;SDS011;23843;51.320;12.340;2022-08-19T17:48:05;1.10;;;1.00;;
38037;SDS011;23843;51.320;12.340;2022-08-19T17:50:30;0.90;;;0.90;;
38037;SDS011;23843;51.320;12.340;2022-08-19T17:52:58;0.70;;;0.70;;
38037;SDS011;23843;51.320;12.340;2022-08-19T17:55:24;1.17;;;1.17;;
38037;SDS011;23843;51.320;12.340;2022-08-19T17:57:50;0.68;;;0.65;;
38037;SDS011;23843;51.320;12.340;2022-08-19T18:00:16;0.70;;;0.70;;
38037;SDS011;23843;51.320;12.340;2022-08-19T18:02:43;0.70;;;0.70;;
38037;SDS011;23843;51.320;12.340;2022-08-19T18:05:11;0.50;;;0.50;;
38037;SDS011;23843;51.320;12.340;2022-08-19T18:07:36;0.60;;;0.60;;
38037;SDS011;23843;51.320;12.340;2022-08-19T18:10:03;0.50;;;0.50;;
38037;SDS011;23843;51.320;12.340;2022-08-19T18:12:30;0.70;;;0.70;;
38037;SDS011;23843;51.320;12.340;2022-08-19T18:14:56;0.68;;;0.68;;
38037;SDS011;23843;51.320;12.340;2022-08-19T18:17:22;1.10;;;1.10;;
38037;SDS011;23843;51.320;12.340;2022-08-19T18:19:47;0.70;;;0.70;;
38037;SDS011;23843;51.320;12.340;2022-08-19T18:22:20;0.60;;;0.60;;
38037;SDS011;23843;51.320;12.340;2022-08-19T18:24:47;0.60;;;0.60;;
38037;SDS011;23843;51.320;12.340;2022-08-19T18:27:14;0.93;;;0.93;;
38037;SDS011;23843;51.320;12.340;2022-08-19T18:29:40;0.85;;;0.85;;
38037;SDS011;23843;51.320;12.340;2022-08-19T18:32:05;0.47;;;0.47;;
38037;SDS011;23843;51.320;12.340;2022-08-19T18:34:31;0.60;;;0.60;;
38037;SDS011;23843;51.320;12.340;2022-08-19T18:36:59;0.47;;;0.47;;
38037;SDS011;23843;51.320;12.340;2022-08-19T18:39:25;0.40;;;0.40;;
38037;SDS011;23843;51.320;12.340;2022-08-19T18:41:51;0.52;;;0.52;;
38037;SDS011;23843;51.320;12.340;2022-08-19T18:44:18;0.50;;;0.50;;
38037;SDS011;23843;51.320;12.340;2022-08-19T18:46:43;0.68;;;0.68;;
38037;SDS011;23843;51.320;12.340;2022-08-19T18:49:09;0.50;;;0.50;;
38037;SDS011;23843;51.320;12.340;2022-08-19T18:51:35;0.68;;;0.68;;
38037;SDS011;23843;51.320;12.340;2022-08-19T18:54:01;0.40;;;0.40;;
38037;SDS011;23843;51.320;12.340;2022-08-19T18:56:27;0.50;;;0.50;;
38037;SDS011;23843;51.320;12.340;2022-08-19T18:58:54;0.47;;;0.47;;